Time;durP1;ratioP1;P1;durP2;ratioP2;P2;SDS_P1;SDS_P2;PMS_P1;PMS_P2;Temp;Humidity;BMP_temperature;BMP_pressure;BME280_temperature;BME280_humidity;BME280_pressure;Samples;Min_cycle;Max_cycle;Signal;HPM_P1;HPM_P2
2022/06/27 00:00:05;;;;;;;4.57;2.97;;;;;;;17.88;79.11;101579.94;5088115;28;20033;-79
2022/06/27 00:02:31;;;;;;;5.30;3.33;;;;;;;17.86;79.14;101571.25;5103303;28;20040;-79
2022/06/27 00:04:56;;;;;;;4.55;2.85;;;;;;;17.88;79.34;101573.81;5074719;28;20348;-79
2022/06/27 00:07:21;;;;;;;4.40;3.28;;;;;;;17.87;79.06;101580.91;5081244;28;20031;-79
2022/06/27 00:09:47;;;;;;;4.93;3.17;;;;;;;17.86;79.04;101578.34;5101442;28;20345;-79
2022/06/27 00:12:12;;;;;;;3.58;3.20;;;;;;;17.86;79.04;101576.53;5105604;28;20259;-79
2022/06/27 00:14:38;;;;;;;3.33;3.00;;;;;;;17.86;79.17;101581.00;5085454;28;20064;-79
2022/06/27 00:17:03;;;;;;;6.50;3.88;;;;;;;17.85;79.26;101585.44;5102548;28;20376;-79
2022/06/27 00:19:29;;;;;;;3.92;3.35;;;;;;;17.85;79.50;101590.75;5089694;28;20040;-79
2022/06/27 00:21:55;;;;;;;3.45;3.15;;;;;;;17.84;79.35;101581.91;5090393;28;20027;-79
2022/06/27 00:24:20;;;;;;;3.70;3.08;;;;;;;17.84;79.53;101581.91;5102754;28;20039;-79
2022/06/27 00:26:48;;;;;;;4.25;3.47;;;;;;;17.84;79.50;101589.88;5089333;28;20048;-79
2022/06/27 00:29:14;;;;;;;4.72;3.20;;;;;;;17.84;79.34;101583.69;5099684;28;20040;-79
2022/06/27 00:31:40;;;;;;;5.18;3.28;;;;;;;17.84;79.62;101589.00;5092659;28;20021;-79
2022/06/27 00:34:05;;;;;;;3.38;3.13;;;;;;;17.83;79.69;101588.16;5089856;28;20219;-79
2022/06/27 00:36:31;;;;;;;5.68;2.95;;;;;;;17.83;79.62;101590.81;5090432;28;20103;-79
2022/06/27 00:38:56;;;;;;;3.22;2.95;;;;;;;17.83;79.51;101590.81;5086898;28;20044;-79
2022/06/27 00:41:21;;;;;;;5.72;3.08;;;;;;;17.82;79.76;101596.19;5089011;28;20067;-79
2022/06/27 00:43:47;;;;;;;3.53;3.10;;;;;;;17.82;79.78;101606.78;5100433;28;20040;-79
2022/06/27 00:46:12;;;;;;;5.00;3.38;;;;;;;17.82;79.78;101617.38;5092716;28;20043;-79
2022/06/27 00:48:38;;;;;;;8.63;3.63;;;;;;;17.81;79.98;101611.25;5096199;28;20036;-79
2022/06/27 00:51:05;;;;;;;4.20;3.67;;;;;;;17.81;80.06;101618.34;5106659;28;20039;-79
2022/06/27 00:53:32;;;;;;;3.53;3.20;;;;;;;17.81;80.24;101611.25;5089428;28;20138;-79
2022/06/27 00:55:58;;;;;;;3.95;3.60;;;;;;;17.81;80.18;101613.03;5079051;28;20104;-79
2022/06/27 00:58:23;;;;;;;4.05;3.65;;;;;;;17.80;80.17;101613.97;5092861;28;20036;-79
2022/06/27 01:00:49;;;;;;;5.60;3.20;;;;;;;17.79;80.73;101609.59;5095231;28;20090;-79
2022/06/27 01:03:14;;;;;;;4.07;3.10;;;;;;;17.80;80.36;101608.69;5083688;28;20059;-79
2022/06/27 01:05:51;;;;;;;4.32;3.55;;;;;;;17.78;80.58;101611.41;5096604;28;20027;-79
2022/06/27 01:08:20;;;;;;;4.93;3.78;;;;;;;17.78;80.89;101610.56;5064833;28;20028;-79
2022/06/27 01:10:46;;;;;;;4.78;4.00;;;;;;;17.78;81.16;101605.25;5089060;28;20258;-79
2022/06/27 01:13:13;;;;;;;5.38;4.00;;;;;;;17.77;81.58;101596.47;5092288;28;20036;-79
2022/06/27 01:15:39;;;;;;;5.47;3.50;;;;;;;17.77;81.75;101600.91;5094404;28;20369;-79
2022/06/27 01:18:05;;;;;;;3.58;3.28;;;;;;;17.76;81.61;101602.69;5089349;28;20032;-79
2022/06/27 01:20:30;;;;;;;4.93;3.42;;;;;;;17.75;81.51;101590.38;5083532;28;20028;-79
2022/06/27 01:22:56;;;;;;;7.30;3.47;;;;;;;17.76;81.47;101592.09;5083440;28;20372;-79
2022/06/27 01:25:25;;;;;;;4.07;3.67;;;;;;;17.77;81.25;101596.47;5060981;28;20131;-79
2022/06/27 01:27:51;;;;;;;5.22;3.38;;;;;;;17.76;81.09;101597.41;5080313;28;20235;-79
2022/06/27 01:30:16;;;;;;;4.47;2.83;;;;;;;17.76;81.15;101604.50;5094994;28;20363;-79
2022/06/27 01:32:42;;;;;;;6.22;4.03;;;;;;;17.75;81.25;101605.44;5092704;28;20051;-79
2022/06/27 01:35:08;;;;;;;5.60;3.80;;;;;;;17.75;81.15;101608.94;5086691;28;20028;-79
2022/06/27 01:37:33;;;;;;;5.55;3.88;;;;;;;17.74;81.58;101604.59;5086584;28;20223;-79
2022/06/27 01:40:00;;;;;;;5.55;4.50;;;;;;;17.72;81.98;101601.19;5079458;28;20074;-79
2022/06/27 01:42:26;;;;;;;6.28;4.35;;;;;;;17.71;82.06;101595.97;5087843;28;20108;-79
2022/06/27 01:44:52;;;;;;;4.68;3.85;;;;;;;17.70;82.00;101597.78;5080323;28;20043;-79
2022/06/27 01:47:17;;;;;;;4.60;4.20;;;;;;;17.69;82.23;101604.00;5074570;28;20028;-79
2022/06/27 01:49:43;;;;;;;4.88;4.47;;;;;;;17.66;82.40;101596.22;5070665;28;20366;-79
2022/06/27 01:52:14;;;;;;;4.50;4.10;;;;;;;17.67;82.57;101594.44;5085073;28;20044;-79
2022/06/27 01:54:39;;;;;;;4.32;4.07;;;;;;;17.65;82.33;101587.44;5083991;28;20044;-79
2022/06/27 01:57:06;;;;;;;5.90;4.55;;;;;;;17.63;82.43;101591.97;5081636;28;20315;-79
2022/06/27 01:59:32;;;;;;;10.43;4.40;;;;;;;17.62;83.01;101592.91;5091238;28;20099;-79
2022/06/27 02:01:59;;;;;;;8.15;4.60;;;;;;;17.59;83.20;101589.59;5081021;28;20041;-79
2022/06/27 02:04:26;;;;;;;5.25;4.50;;;;;;;17.58;82.93;101582.59;5083145;28;20328;-79
2022/06/27 02:06:52;;;;;;;4.47;4.05;;;;;;;17.57;83.00;101573.81;5096929;28;20255;-79
2022/06/27 02:09:17;;;;;;;5.28;4.20;;;;;;;17.57;83.02;101560.56;5085193;28;20047;-79
2022/06/27 02:11:45;;;;;;;4.95;3.88;;;;;;;17.57;82.94;101559.69;5083207;28;20326;-79
2022/06/27 02:14:10;;;;;;;8.82;4.18;;;;;;;17.56;82.41;101556.19;5079361;28;20107;-79
2022/06/27 02:16:37;;;;;;;5.18;4.68;;;;;;;17.57;82.36;101551.75;5083395;28;20355;-79
2022/06/27 02:19:04;;;;;;;9.88;4.95;;;;;;;17.57;82.44;101546.44;5090373;28;20039;-78
2022/06/27 02:21:30;;;;;;;4.53;4.13;;;;;;;17.56;82.39;101556.19;5083692;28;20107;-79
2022/06/27 02:23:56;;;;;;;4.40;4.10;;;;;;;17.56;82.24;101566.78;5086071;28;20380;-78
2022/06/27 02:26:24;;;;;;;4.28;3.97;;;;;;;17.56;81.91;101564.16;5081869;28;20040;-79
2022/06/27 02:28:52;;;;;;;4.70;4.30;;;;;;;17.55;81.88;101572.16;5093797;28;20127;-79
2022/06/27 02:31:18;;;;;;;7.10;5.25;;;;;;;17.54;82.09;101573.97;5084622;28;20040;-78
2022/06/27 02:33:45;;;;;;;5.95;5.35;;;;;;;17.54;82.17;101567.84;5098368;28;20341;-79
2022/06/27 02:36:15;;;;;;;5.25;4.80;;;;;;;17.53;82.06;101563.47;5091642;28;20087;-78
2022/06/27 02:38:41;;;;;;;4.95;4.55;;;;;;;17.53;81.99;101558.16;5091822;28;20031;-78
2022/06/27 02:41:09;;;;;;;6.20;4.55;;;;;;;17.53;81.98;101552.88;5088495;28;20036;-80
2022/06/27 02:43:37;;;;;;;4.97;4.50;;;;;;;17.53;81.84;101559.00;5090144;28;20282;-79
2022/06/27 02:46:03;;;;;;;4.18;3.97;;;;;;;17.53;81.54;101555.53;5092891;28;20054;-79
2022/06/27 02:48:32;;;;;;;5.35;3.90;;;;;;;17.52;81.58;101559.09;5080231;28;20016;-78
2022/06/27 02:51:07;;;;;;;4.20;3.90;;;;;;;17.52;81.37;101548.50;5096029;28;20038;-79
2022/06/27 02:53:37;;;;;;;4.65;4.25;;;;;;;17.52;81.16;101548.50;5081312;28;20075;-78
2022/06/27 02:56:07;;;;;;;6.97;4.03;;;;;;;17.50;81.24;101548.63;5095247;28;20036;-79
2022/06/27 02:58:38;;;;;;;4.30;4.00;;;;;;;17.48;80.89;101553.13;5082520;28;20101;-79
2022/06/27 03:01:03;;;;;;;4.47;4.07;;;;;;;17.50;81.04;101553.03;5082818;28;20245;-78
2022/06/27 03:03:32;;;;;;;5.30;4.30;;;;;;;17.48;80.92;101544.34;5081233;28;20028;-78
2022/06/27 03:06:03;;;;;;;5.53;4.35;;;;;;;17.46;80.82;101542.66;5085818;28;20025;-78
2022/06/27 03:08:42;;;;;;;4.72;4.32;;;;;;;17.44;80.93;101535.72;5087497;28;20275;-78
2022/06/27 03:11:13;;;;;;;3.88;3.58;;;;;;;17.43;80.94;101534.03;5092216;28;20081;-78
2022/06/27 03:13:38;;;;;;;3.97;3.65;;;;;;;17.43;80.70;101531.38;5087753;28;20051;-79
2022/06/27 03:16:04;;;;;;;4.55;4.15;;;;;;;17.42;80.73;101529.66;5082154;28;20053;-79
2022/06/27 03:18:30;;;;;;;6.88;3.80;;;;;;;17.40;80.57;101534.22;5083903;28;20077;-79
2022/06/27 03:20:55;;;;;;;4.43;3.55;;;;;;;17.37;80.58;101527.31;5086984;28;20039;-78
2022/06/27 03:23:21;;;;;;;5.88;3.67;;;;;;;17.37;80.75;101529.09;5091250;28;20107;-79
2022/06/27 03:25:47;;;;;;;5.28;3.78;;;;;;;17.35;80.73;101528.31;5092553;28;20047;-79
2022/06/27 03:28:13;;;;;;;4.85;3.65;;;;;;;17.33;80.63;101531.06;5080276;28;20036;-78
2022/06/27 03:30:39;;;;;;;5.28;3.50;;;;;;;17.32;80.78;101539.94;5088309;28;20055;-79
2022/06/27 03:33:04;;;;;;;5.20;3.65;;;;;;;17.30;80.67;101536.53;5064916;28;20318;-79
2022/06/27 03:35:30;;;;;;;3.88;3.58;;;;;;;17.30;80.31;101539.19;5085985;28;20127;-78
2022/06/27 03:37:55;;;;;;;4.32;3.95;;;;;;;17.27;80.34;101534.06;5089802;28;20297;-78
2022/06/27 03:40:21;;;;;;;4.78;4.18;;;;;;;17.27;80.38;101550.78;5086963;28;20032;-78
2022/06/27 03:42:46;;;;;;;6.35;4.05;;;;;;;17.25;80.45;101542.09;5083791;28;20060;-78
2022/06/27 03:45:12;;;;;;;6.43;3.65;;;;;;;17.23;80.36;101535.19;5085932;28;20040;-79
2022/06/27 03:47:52;;;;;;;5.15;3.45;;;;;;;17.22;80.17;101528.19;5084483;28;20039;-79
2022/06/27 03:50:18;;;;;;;4.20;3.72;;;;;;;17.20;80.49;101519.47;5086935;28;20050;-79
2022/06/27 03:52:44;;;;;;;8.23;3.85;;;;;;;17.20;80.57;101519.47;5083633;28;20305;-78
2022/06/27 03:55:10;;;;;;;4.07;3.78;;;;;;;17.18;80.70;101522.22;5096801;28;20377;-79
2022/06/27 03:57:38;;;;;;;4.70;4.05;;;;;;;17.18;80.65;101531.97;5096805;28;20246;-79
2022/06/27 04:00:08;;;;;;;3.88;3.67;;;;;;;17.16;80.78;101520.59;5085892;28;20250;-79
2022/06/27 04:02:34;;;;;;;5.05;4.05;;;;;;;17.15;80.81;101513.59;5095509;28;20044;-78
2022/06/27 04:05:00;;;;;;;4.53;4.22;;;;;;;17.14;80.84;101515.41;5083961;28;20031;-78
2022/06/27 04:07:25;;;;;;;4.00;3.70;;;;;;;17.13;80.72;101524.25;5095116;28;20101;-78
2022/06/27 04:09:51;;;;;;;4.18;3.47;;;;;;;17.13;80.94;101541.94;5085184;28;20332;-79
2022/06/27 04:12:16;;;;;;;6.10;3.70;;;;;;;17.11;80.77;101527.94;5084698;28;20051;-78
2022/06/27 04:14:41;;;;;;;4.30;3.90;;;;;;;17.10;80.81;101516.53;5084577;28;20248;-78
2022/06/27 04:17:07;;;;;;;4.30;3.90;;;;;;;17.09;80.99;101522.75;5087381;28;20027;-78
2022/06/27 04:19:32;;;;;;;8.02;4.60;;;;;;;17.08;80.85;101527.19;5079757;28;20343;-78
2022/06/27 04:21:57;;;;;;;8.23;3.65;;;;;;;17.07;81.32;101529.91;5081920;28;20070;-78
2022/06/27 04:24:23;;;;;;;4.68;3.95;;;;;;;17.06;81.03;101531.72;5082668;28;20051;-79
2022/06/27 04:26:48;;;;;;;4.10;3.80;;;;;;;17.06;80.77;101525.56;5089465;28;20320;-78
2022/06/27 04:29:14;;;;;;;4.35;3.90;;;;;;;17.05;80.85;101518.56;5090894;28;20042;-79
2022/06/27 04:31:40;;;;;;;3.63;3.35;;;;;;;17.05;81.22;101497.41;5083232;28;20313;-78
2022/06/27 04:34:05;;;;;;;4.28;3.90;;;;;;;17.03;81.00;101480.78;5077809;28;20043;-78
2022/06/27 04:36:31;;;;;;;5.07;4.20;;;;;;;17.03;81.20;101484.25;5050726;28;20028;-78
2022/06/27 04:38:57;;;;;;;4.22;3.83;;;;;;;17.03;81.20;101481.63;5067805;28;20082;-78
2022/06/27 04:41:25;;;;;;;4.15;3.80;;;;;;;17.02;81.40;101471.97;5084423;28;20028;-78
2022/06/27 04:43:53;;;;;;;4.32;3.78;;;;;;;17.03;81.57;101464.88;5083944;28;20040;-78
2022/06/27 04:46:19;;;;;;;4.13;3.78;;;;;;;17.02;81.68;101463.19;5075694;28;20024;-78
2022/06/27 04:48:46;;;;;;;5.20;3.58;;;;;;;17.02;81.79;101463.19;5086834;28;20044;-78
2022/06/27 04:51:14;;;;;;;9.50;3.63;;;;;;;17.01;81.57;101464.97;5087735;28;20254;-79
2022/06/27 04:53:40;;;;;;;3.90;3.60;;;;;;;17.02;81.52;101466.66;5093932;28;20050;-78
2022/06/27 04:56:07;;;;;;;4.07;3.67;;;;;;;17.02;81.33;101471.97;5095614;28;20020;-78
2022/06/27 04:58:33;;;;;;;5.35;4.00;;;;;;;17.02;81.54;101479.06;5090135;28;20229;-78
2022/06/27 05:00:58;;;;;;;7.60;3.85;;;;;;;17.02;81.70;101487.84;5094399;28;20032;-78
2022/06/27 05:03:24;;;;;;;4.40;4.00;;;;;;;17.03;81.67;101475.47;5096802;28;20357;-78
2022/06/27 05:05:50;;;;;;;4.20;3.90;;;;;;;17.01;81.80;101472.91;5096975;28;20040;-78
2022/06/27 05:08:16;;;;;;;6.53;3.97;;;;;;;17.01;81.67;101466.78;5108032;28;20112;-78
2022/06/27 05:10:42;;;;;;;5.03;4.18;;;;;;;17.00;81.85;101473.84;5065081;28;20036;-79
2022/06/27 05:13:07;;;;;;;4.55;3.83;;;;;;;16.99;82.23;101488.03;5052455;28;20032;-79
2022/06/27 05:15:33;;;;;;;5.85;3.83;;;;;;;16.99;82.07;101492.44;5068507;28;20052;-78
2022/06/27 05:17:58;;;;;;;4.40;4.00;;;;;;;16.99;81.99;101506.56;5094922;28;20031;-78
2022/06/27 05:20:24;;;;;;;3.90;3.60;;;;;;;16.98;81.97;101518.06;5097430;28;20081;-79
2022/06/27 05:22:49;;;;;;;4.50;4.07;;;;;;;16.98;82.04;101504.00;5084007;28;20142;-79
2022/06/27 05:25:14;;;;;;;5.70;4.55;;;;;;;16.98;82.05;101504.00;5074949;28;20036;-78
2022/06/27 05:27:40;;;;;;;4.05;3.55;;;;;;;16.97;82.20;101503.16;5075271;28;20051;-78
2022/06/27 05:30:06;;;;;;;5.90;4.10;;;;;;;16.98;82.21;101485.47;5086859;28;20024;-79
2022/06/27 05:32:32;;;;;;;5.35;3.97;;;;;;;16.97;82.06;101495.22;5085659;28;20093;-79
2022/06/27 05:34:57;;;;;;;6.78;3.97;;;;;;;16.98;82.03;101509.28;5088566;28;20040;-78
2022/06/27 05:37:23;;;;;;;4.78;4.00;;;;;;;16.98;82.00;101526.00;5096733;28;20028;-78
2022/06/27 05:39:48;;;;;;;8.27;3.88;;;;;;;16.98;81.88;101535.75;5078058;28;20105;-78
2022/06/27 05:42:14;;;;;;;5.78;4.30;;;;;;;16.99;81.51;101532.13;5098539;28;20278;-78
2022/06/27 05:44:39;;;;;;;3.92;3.63;;;;;;;16.99;81.43;101533.00;5088570;28;20036;-78
2022/06/27 05:47:05;;;;;;;6.35;3.75;;;;;;;17.00;81.73;101523.28;5097376;28;20067;-78
2022/06/27 05:49:31;;;;;;;4.95;4.40;;;;;;;16.99;81.75;101525.06;5100268;28;20034;-78
2022/06/27 05:51:57;;;;;;;4.78;3.63;;;;;;;17.01;81.60;101540.88;5092533;28;20269;-78
2022/06/27 05:54:24;;;;;;;4.22;3.83;;;;;;;17.00;81.61;101540.00;5094804;28;20036;-78
2022/06/27 05:56:50;;;;;;;6.70;4.15;;;;;;;17.01;81.48;101547.00;5087738;28;20059;-78
2022/06/27 05:59:17;;;;;;;6.13;3.78;;;;;;;17.01;81.77;101554.94;5099730;28;20039;-78
2022/06/27 06:01:43;;;;;;;3.95;3.58;;;;;;;17.02;81.42;101566.38;5098497;28;20060;-78
2022/06/27 06:04:08;;;;;;;4.10;3.70;;;;;;;17.03;81.51;101565.44;5078419;28;20107;-78
2022/06/27 06:06:34;;;;;;;5.63;3.83;;;;;;;17.03;81.37;101565.44;5088862;28;20036;-78
2022/06/27 06:09:01;;;;;;;4.72;3.90;;;;;;;17.03;81.54;101563.63;5079585;28;20070;-78
2022/06/27 06:11:28;;;;;;;4.68;4.10;;;;;;;17.03;81.54;101563.63;5093248;28;20027;-78
2022/06/27 06:13:54;;;;;;;4.25;3.90;;;;;;;17.04;81.39;101554.75;5093248;28;20031;-78
2022/06/27 06:16:20;;;;;;;4.75;4.07;;;;;;;17.04;81.63;101560.03;5101031;28;20493;-79
2022/06/27 06:18:57;;;;;;;3.92;3.63;;;;;;;17.05;81.63;101559.13;5100943;28;20371;-78
2022/06/27 06:21:23;;;;;;;5.47;3.75;;;;;;;17.06;81.71;101567.91;5085954;28;20032;-78
2022/06/27 06:23:51;;;;;;;4.97;4.47;;;;;;;17.07;81.49;101567.81;5087174;28;20340;-79
2022/06/27 06:26:17;;;;;;;5.28;4.10;;;;;;;17.08;81.54;101585.41;5092312;28;20060;-78
2022/06/27 06:28:53;;;;;;;6.03;4.95;;;;;;;17.11;81.57;101599.41;5097277;28;20217;-78
2022/06/27 06:31:22;;;;;;;7.78;5.90;;;;;;;17.10;82.08;101598.56;5097606;28;20035;-78
2022/06/27 06:33:53;;;;;;;7.05;5.43;;;;;;;17.12;82.43;101601.97;5101352;28;20161;-78
2022/06/27 06:36:21;;;;;;;9.23;5.38;;;;;;;17.14;82.52;101609.81;5106202;28;20358;-78
2022/06/27 06:38:47;;;;;;;6.35;5.63;;;;;;;17.15;83.51;101614.16;5105161;28;20036;-78
2022/06/27 06:41:12;;;;;;;7.60;5.30;;;;;;;17.16;83.49;101618.53;5100791;28;20251;-78
2022/06/27 06:43:37;;;;;;;7.13;5.53;;;;;;;17.17;83.70;101618.44;5096691;28;20040;-78
2022/06/27 06:46:03;;;;;;;9.10;5.75;;;;;;;17.18;84.02;101616.66;5104479;28;20036;-78
2022/06/27 06:48:28;;;;;;;6.18;5.25;;;;;;;17.19;83.91;101615.69;5101439;28;20234;-78
2022/06/27 06:50:56;;;;;;;6.97;6.10;;;;;;;17.19;84.06;101594.50;5093217;28;20070;-78
2022/06/27 06:53:22;;;;;;;7.93;5.72;;;;;;;17.20;84.21;101572.41;5097525;28;20196;-79
2022/06/27 06:55:48;;;;;;;9.27;6.25;;;;;;;17.20;84.45;101562.69;5091039;28;20030;-78
2022/06/27 06:58:13;;;;;;;8.15;6.25;;;;;;;17.22;84.66;101557.28;5095864;28;20031;-78
2022/06/27 07:00:39;;;;;;;8.13;6.13;;;;;;;17.21;84.76;101547.66;5093833;28;20052;-78
2022/06/27 07:03:05;;;;;;;6.82;5.45;;;;;;;17.22;85.04;101558.13;5095939;28;20254;-78
2022/06/27 07:05:32;;;;;;;5.82;5.32;;;;;;;17.22;84.91;101546.72;5089995;28;20039;-78
2022/06/27 07:07:58;;;;;;;10.77;5.43;;;;;;;17.23;84.63;101540.50;5092403;28;20039;-78
2022/06/27 07:10:25;;;;;;;7.68;5.88;;;;;;;17.23;84.10;101537.84;5091984;28;20034;-78
2022/06/27 07:12:51;;;;;;;6.60;5.47;;;;;;;17.23;84.05;101520.16;5092582;28;20052;-78
2022/06/27 07:15:17;;;;;;;5.40;4.90;;;;;;;17.24;83.91;101536.88;5102336;28;20051;-78
2022/06/27 07:17:46;;;;;;;6.95;5.60;;;;;;;17.24;83.86;101536.88;5099343;28;20115;-78
2022/06/27 07:20:12;;;;;;;;;;;;;;;17.24;83.78;101544.81;5093935;28;20235;-78
2022/06/27 07:22:39;;;;;;;9.15;5.10;;;;;;;17.26;83.66;101542.94;5105173;28;19916;-78
2022/06/27 07:25:05;;;;;;;6.72;5.90;;;;;;;17.27;83.76;101542.00;5101345;28;20238;-78
2022/06/27 07:27:32;;;;;;;6.50;5.68;;;;;;;17.28;84.08;101549.00;5106671;28;20044;-78
2022/06/27 07:29:57;;;;;;;9.82;5.50;;;;;;;17.29;84.18;101557.81;5080783;28;20036;-78
2022/06/27 07:32:25;;;;;;;6.78;5.30;;;;;;;17.31;84.41;101548.81;5089111;28;20036;-78
2022/06/27 07:34:51;;;;;;;6.80;6.15;;;;;;;17.32;84.58;101550.53;5082422;27;20071;-78
2022/06/27 07:37:18;;;;;;;6.57;5.93;;;;;;;17.33;84.61;101549.59;5111738;28;20397;-78
2022/06/27 07:39:43;;;;;;;6.65;5.75;;;;;;;17.34;85.01;101571.63;5113997;28;20040;-78
2022/06/27 07:42:09;;;;;;;7.38;6.65;;;;;;;17.35;85.36;101576.81;5115050;27;20065;-78
2022/06/27 07:44:34;;;;;;;8.38;6.18;;;;;;;17.37;85.39;101587.31;5113109;27;20042;-78
2022/06/27 07:47:03;;;;;;;8.57;6.07;;;;;;;17.38;85.36;101581.94;5092112;28;20045;-78
2022/06/27 07:49:28;;;;;;;10.35;6.82;;;;;;;17.40;85.46;101588.00;5093949;27;20032;-78
2022/06/27 07:51:54;;;;;;;9.88;7.03;;;;;;;17.41;85.49;101581.78;5118233;27;20089;-78
2022/06/27 07:54:19;;;;;;;8.52;5.55;;;;;;;17.44;85.23;101578.97;5114955;28;20058;-78
2022/06/27 07:56:46;;;;;;;6.78;6.18;;;;;;;17.44;84.96;101581.63;5112663;28;20036;-78
2022/06/27 07:59:13;;;;;;;9.85;5.60;;;;;;;17.46;84.28;101586.78;5119377;27;20366;-77
2022/06/27 08:01:39;;;;;;;12.55;5.78;;;;;;;17.47;84.02;101585.88;5101338;27;20183;-78
2022/06/27 08:04:06;;;;;;;6.00;5.40;;;;;;;17.50;83.75;101590.13;5120749;27;20066;-77
2022/06/27 08:06:31;;;;;;;10.48;5.10;;;;;;;17.51;82.93;101590.03;5128681;27;20084;-78
2022/06/27 08:08:59;;;;;;;6.60;5.93;;;;;;;17.52;82.41;101594.41;5116828;27;20042;-78
2022/06/27 08:11:29;;;;;;;5.82;4.70;;;;;;;17.54;81.94;101586.38;5111613;27;20035;-78
2022/06/27 08:13:58;;;;;;;5.95;5.25;;;;;;;17.55;81.43;101577.47;5124279;28;20031;-78
2022/06/27 08:16:26;;;;;;;7.88;4.90;;;;;;;17.56;81.45;101577.38;5124409;27;20044;-78
2022/06/27 08:18:52;;;;;;;5.75;4.30;;;;;;;17.58;81.63;101578.16;5105599;27;20012;-77
2022/06/27 08:21:23;;;;;;;7.97;4.78;;;;;;;17.58;81.33;101574.66;5139457;27;20210;-77
2022/06/27 08:23:49;;;;;;;4.65;4.15;;;;;;;17.58;81.05;101586.09;5126133;27;20126;-78
2022/06/27 08:26:16;;;;;;;4.25;3.85;;;;;;;17.60;81.09;101570.13;5083212;28;20063;-77
2022/06/27 08:28:44;;;;;;;5.25;4.78;;;;;;;17.61;81.10;101562.09;5119433;27;20072;-77
2022/06/27 08:31:12;;;;;;;7.25;4.70;;;;;;;17.64;81.22;101574.28;5107012;27;20035;-77
2022/06/27 08:33:45;;;;;;;8.73;4.85;;;;;;;17.67;81.28;101581.22;5097745;28;20347;-77
2022/06/27 08:36:13;;;;;;;5.25;4.53;;;;;;;17.69;81.04;101585.47;5108875;28;20043;-77
2022/06/27 08:38:42;;;;;;;6.47;5.18;;;;;;;17.71;80.53;101599.47;5110617;28;20031;-77
2022/06/27 08:41:11;;;;;;;9.13;5.80;;;;;;;17.73;80.56;101610.81;5105460;28;20111;-77
2022/06/27 08:43:38;;;;;;;4.82;4.50;;;;;;;17.75;80.72;101611.56;5090638;28;20292;-77
2022/06/27 08:46:05;;;;;;;5.43;4.88;;;;;;;17.78;80.51;101613.22;5091519;28;20040;-78
2022/06/27 08:48:32;;;;;;;4.72;4.20;;;;;;;17.79;80.38;101612.25;5109460;28;20044;-78
2022/06/27 08:50:59;;;;;;;5.82;4.70;;;;;;;17.81;80.40;101629.78;5109731;28;20058;-77
2022/06/27 08:53:25;;;;;;;5.90;4.43;;;;;;;17.83;80.86;101637.66;5104407;28;20035;-77
2022/06/27 08:55:51;;;;;;;4.63;4.20;;;;;;;17.85;80.43;101627.84;5113242;28;20046;-77
2022/06/27 08:58:16;;;;;;;5.38;4.45;;;;;;;17.83;80.64;101619.94;5108122;28;20057;-77
2022/06/27 09:00:45;;;;;;;9.38;5.28;;;;;;;17.86;80.48;101624.22;5116849;28;20051;-78
2022/06/27 09:03:19;;;;;;;8.05;4.47;;;;;;;17.86;80.41;101629.53;5097572;27;20450;-78
2022/06/27 09:06:06;;;;;;;7.63;4.20;;;;;;;17.89;80.12;101637.31;5118505;27;20040;-78
2022/06/27 09:08:36;;;;;;;5.40;3.63;;;;;;;17.91;79.69;101638.06;5122207;27;20038;-78
2022/06/27 09:11:02;;;;;;;6.18;4.15;;;;;;;17.90;79.50;101633.72;5125640;27;20130;-78
2022/06/27 09:13:28;;;;;;;4.88;3.60;;;;;;;17.92;79.43;101631.84;5095938;28;20043;-78
2022/06/27 09:15:57;;;;;;;7.32;3.70;;;;;;;17.92;79.29;101626.53;5096180;28;20064;-77
2022/06/27 09:18:36;;;;;;;7.20;3.50;;;;;;;17.94;79.27;101626.44;5111819;28;20362;-77
2022/06/27 09:21:11;;;;;;;5.35;4.13;;;;;;;17.92;79.06;101617.72;5082636;28;20093;-77
2022/06/27 09:23:41;;;;;;;5.60;4.03;;;;;;;17.94;78.70;101622.00;5115159;28;20106;-77
2022/06/27 09:26:15;;;;;;;9.82;4.88;;;;;;;17.94;79.11;101611.41;5100424;28;20067;-78
2022/06/27 09:28:48;;;;;;;7.60;4.20;;;;;;;17.96;79.19;101613.97;5107776;28;20051;-77
2022/06/27 09:31:26;;;;;;;7.97;4.20;;;;;;;17.97;79.85;101615.66;5110032;28;20381;-77
2022/06/27 09:34:16;;;;;;;5.68;3.33;;;;;;;17.99;79.29;101619.06;5107746;28;20036;-78
2022/06/27 09:36:45;;;;;;;4.35;3.13;;;;;;;18.01;78.88;101633.09;5114712;27;20032;-77
2022/06/27 09:39:18;;;;;;;4.32;3.00;;;;;;;18.01;78.67;101631.28;5099407;28;20043;-78
2022/06/27 09:41:54;;;;;;;6.22;3.17;;;;;;;18.02;78.63;101632.97;5111607;28;20269;-77
2022/06/27 09:44:24;;;;;;;3.22;2.92;;;;;;;18.04;79.39;101630.25;5104253;28;20182;-78
2022/06/27 09:46:58;;;;;;;5.57;2.97;;;;;;;18.05;79.04;101628.47;5098930;28;20311;-77
2022/06/27 09:49:26;;;;;;;7.68;3.30;;;;;;;18.08;78.96;101622.97;5086967;28;20032;-78
2022/06/27 09:51:53;;;;;;;6.97;3.28;;;;;;;18.09;79.43;101628.16;5090745;28;20074;-78
2022/06/27 09:54:22;;;;;;;4.72;3.65;;;;;;;18.11;79.70;101628.09;5112745;28;20081;-78
2022/06/27 09:56:50;;;;;;;4.68;3.50;;;;;;;18.14;79.63;101622.63;5095434;28;20028;-77
2022/06/27 09:59:16;;;;;;;10.40;3.65;;;;;;;18.15;80.00;101622.50;5108479;28;20040;-77
2022/06/27 10:01:42;;;;;;;5.50;3.30;;;;;;;18.16;79.86;101616.25;5103034;28;20079;-78
2022/06/27 10:04:08;;;;;;;6.45;3.83;;;;;;;18.17;80.57;101623.28;5088695;28;20081;-78
2022/06/27 10:06:36;;;;;;;18.92;7.72;;;;;;;18.20;80.56;101623.06;5091058;28;20102;-78
2022/06/27 10:09:04;;;;;;;41.10;13.67;;;;;;;18.23;80.97;101619.41;5092449;28;20065;-78
2022/06/27 10:11:30;;;;;;;31.60;10.07;;;;;;;18.23;81.05;101620.25;5102986;28;20277;-78
2022/06/27 10:14:20;;;;;;;26.33;8.77;;;;;;;18.25;81.29;101612.19;5084756;28;20338;-78
2022/06/27 10:16:57;;;;;;;19.40;8.43;;;;;;;18.27;81.22;101622.72;5105039;28;20058;-78
2022/06/27 10:19:25;;;;;;;13.88;6.78;;;;;;;18.28;81.08;101629.72;5109853;28;20039;-78
2022/06/27 10:21:51;;;;;;;13.37;6.30;;;;;;;18.28;81.27;101625.28;5107042;28;20058;-78
2022/06/27 10:24:26;;;;;;;12.02;5.85;;;;;;;18.27;81.11;101626.22;5093304;28;20054;-78
2022/06/27 10:26:54;;;;;;;8.73;5.65;;;;;;;18.28;81.30;101630.59;5116135;27;20268;-78
2022/06/27 10:29:28;;;;;;;9.07;5.00;;;;;;;18.29;81.45;101620.81;5123913;27;20300;-78
2022/06/27 10:31:54;;;;;;;9.32;6.10;;;;;;;18.28;81.31;101625.28;5128848;27;20322;-78
2022/06/27 10:34:39;;;;;;;6.95;5.40;;;;;;;18.28;81.37;101619.09;5095654;27;20039;-78
2022/06/27 10:37:26;;;;;;;9.57;5.47;;;;;;;18.28;81.66;101625.28;5112849;27;20313;-78
2022/06/27 10:40:19;;;;;;;5.68;4.85;;;;;;;18.30;81.67;101622.50;5115555;27;20059;-78
2022/06/27 10:42:49;;;;;;;4.65;4.28;;;;;;;18.28;81.65;101625.28;5127298;27;20090;-78
2022/06/27 10:45:22;;;;;;;13.73;4.30;;;;;;;18.27;81.24;101620.91;5093222;27;20402;-78
2022/06/27 10:47:52;;;;;;;9.43;4.07;;;;;;;18.28;81.30;101625.28;5119503;27;20242;-78
2022/06/27 10:50:23;;;;;;;5.38;3.75;;;;;;;18.29;81.13;101629.63;5122470;27;20252;-78
2022/06/27 10:52:48;;;;;;;6.88;3.88;;;;;;;18.31;81.65;101629.53;5128438;27;20028;-78
2022/06/27 10:55:21;;;;;;;5.45;3.80;;;;;;;18.34;81.53;101624.06;5108308;27;20038;-78
2022/06/27 10:57:47;;;;;;;9.68;4.45;;;;;;;18.33;81.17;101625.81;5120399;27;20099;-78
2022/06/27 11:00:35;;;;;;;6.10;3.55;;;;;;;18.34;80.76;101619.59;5129385;27;20042;-78
2022/06/27 11:03:00;;;;;;;;;;;;;;;18.37;80.29;101621.19;5124827;27;20111;-78
2022/06/27 11:05:28;;;;;;;5.68;2.95;;;;;;;18.40;80.27;101624.50;5100925;27;20207;-78
2022/06/27 11:07:54;;;;;;;4.60;2.80;;;;;;;18.40;80.26;101621.84;5105007;27;20350;-78
2022/06/27 11:10:21;;;;;;;5.93;2.85;;;;;;;18.43;80.13;101618.19;5110596;28;20028;-77
2022/06/27 11:12:46;;;;;;;4.47;2.78;;;;;;;18.46;80.21;101622.44;5087215;28;20028;-78
2022/06/27 11:15:12;;;;;;;4.03;2.70;;;;;;;18.48;80.05;101624.06;5095403;27;20044;-78
2022/06/27 11:17:43;;;;;;;5.55;2.50;;;;;;;18.50;79.49;101629.25;5119551;27;20094;-78
2022/06/27 11:20:20;;;;;;;4.63;2.15;;;;;;;18.53;79.55;101621.13;5093366;27;20279;-78
2022/06/27 11:22:52;;;;;;;3.83;2.25;;;;;;;18.55;79.41;101624.50;5125046;27;20098;-78
2022/06/27 11:25:22;;;;;;;7.13;2.75;;;;;;;18.55;79.42;101617.41;5124767;27;20223;-78